Time;durP1;ratioP1;P1;durP2;ratioP2;P2;SDS_P1;SDS_P2;PMS_P1;PMS_P2;Temp;Humidity;BMP_temperature;BMP_pressure;BME280_temperature;BME280_humidity;BME280_pressure;Samples;Min_cycle;Max_cycle;Signal;HPM_P1;HPM_P2
2023/12/11 00:01:13;;;;;;;0.70;0.60;;;8.50;99.90;;;;;;5038570;28;20605;-73
2023/12/11 00:03:41;;;;;;;1.35;0.60;;;8.50;99.90;;;;;;5050428;28;20199;-73
2023/12/11 00:06:10;;;;;;;1.10;0.50;;;8.60;99.90;;;;;;5032267;28;20287;-74
2023/12/11 00:08:38;;;;;;;1.85;1.02;;;8.60;99.90;;;;;;5030576;28;20243;-73
2023/12/11 00:11:08;;;;;;;1.13;0.70;;;8.60;99.90;;;;;;5030501;28;20258;-73
2023/12/11 00:13:36;;;;;;;1.83;0.50;;;8.70;99.90;;;;;;5030487;28;20298;-73
2023/12/11 00:16:06;;;;;;;0.70;0.50;;;8.80;99.90;;;;;;5030086;28;20215;-73
2023/12/11 00:18:35;;;;;;;1.17;0.57;;;8.70;99.90;;;;;;5030445;28;20311;-72
2023/12/11 00:21:03;;;;;;;1.02;0.60;;;8.80;99.90;;;;;;5030042;28;20250;-70
2023/12/11 00:23:31;;;;;;;1.40;0.77;;;8.80;99.90;;;;;;5030341;28;20251;-72
2023/12/11 00:25:59;;;;;;;0.75;0.57;;;8.80;99.90;;;;;;5039443;28;20212;-72
2023/12/11 00:28:27;;;;;;;1.75;0.60;;;8.80;99.90;;;;;;5034369;28;20274;-72
2023/12/11 00:30:55;;;;;;;0.60;0.50;;;8.80;99.90;;;;;;5039456;28;20212;-72
2023/12/11 00:33:24;;;;;;;0.90;0.60;;;8.70;99.90;;;;;;5045838;28;20247;-72
2023/12/11 00:35:52;;;;;;;1.52;0.65;;;8.70;99.90;;;;;;5037651;28;20241;-72
2023/12/11 00:38:20;;;;;;;0.98;0.40;;;8.70;99.90;;;;;;5037694;28;20219;-73
2023/12/11 00:40:48;;;;;;;0.90;0.50;;;8.70;99.90;;;;;;5037963;28;20285;-72
2023/12/11 00:43:16;;;;;;;1.50;0.68;;;8.70;99.90;;;;;;5033846;28;20201;-72
2023/12/11 00:45:44;;;;;;;1.77;0.52;;;8.70;99.90;;;;;;5034227;28;20667;-72
2023/12/11 00:48:13;;;;;;;0.75;0.50;;;8.70;99.90;;;;;;5033823;28;20236;-72
2023/12/11 00:50:42;;;;;;;0.82;0.60;;;8.70;99.90;;;;;;5034054;28;20212;-72
2023/12/11 00:53:10;;;;;;;0.60;0.50;;;8.70;99.90;;;;;;5033590;28;20765;-72
2023/12/11 00:55:38;;;;;;;0.88;0.60;;;8.70;99.90;;;;;;5033567;28;20218;-72
2023/12/11 00:58:06;;;;;;;0.50;0.40;;;8.80;99.90;;;;;;5034149;28;20666;-73
2023/12/11 01:00:34;;;;;;;2.55;1.08;;;8.70;99.90;;;;;;5036552;28;20299;-72
2023/12/11 01:03:03;;;;;;;0.88;0.70;;;8.80;99.90;;;;;;5044122;28;20200;-73
2023/12/11 01:05:31;;;;;;;2.35;0.70;;;8.70;99.90;;;;;;5033719;28;20212;-73
2023/12/11 01:08:00;;;;;;;0.60;0.50;;;8.70;99.90;;;;;;5040878;28;20260;-73
2023/12/11 01:10:28;;;;;;;0.60;0.50;;;8.70;99.90;;;;;;5033613;28;20209;-74
2023/12/11 01:12:56;;;;;;;0.60;0.50;;;8.70;99.90;;;;;;5033258;28;20227;-74
2023/12/11 01:15:24;;;;;;;0.60;0.50;;;8.70;99.90;;;;;;5033548;28;20200;-73
2023/12/11 01:17:52;;;;;;;1.85;0.90;;;8.70;99.90;;;;;;5033208;28;20225;-73
2023/12/11 01:20:20;;;;;;;1.13;0.70;;;8.70;99.90;;;;;;5033104;28;20624;-73
2023/12/11 01:22:48;;;;;;;0.80;0.80;;;8.60;99.90;;;;;;5033146;28;20258;-73
2023/12/11 01:25:17;;;;;;;0.85;0.60;;;8.60;99.90;;;;;;5033266;28;20698;-73
2023/12/11 01:27:45;;;;;;;0.70;0.52;;;8.60;99.90;;;;;;5041048;28;20243;-73
2023/12/11 01:30:13;;;;;;;0.60;0.55;;;8.70;99.90;;;;;;5033157;28;20208;-73
2023/12/11 01:32:41;;;;;;;0.98;0.60;;;8.70;99.90;;;;;;5033032;28;20508;-73
2023/12/11 01:35:09;;;;;;;0.90;0.60;;;8.70;99.90;;;;;;5040995;28;20243;-73
2023/12/11 01:37:37;;;;;;;0.90;0.50;;;8.80;99.90;;;;;;5032356;28;20205;-73
2023/12/11 01:40:07;;;;;;;0.77;0.70;;;8.80;99.90;;;;;;5032940;28;20209;-73
2023/12/11 01:42:37;;;;;;;1.42;0.75;;;8.80;99.90;;;;;;5032956;28;20235;-73
2023/12/11 01:45:06;;;;;;;0.82;0.60;;;8.90;99.90;;;;;;5041161;28;20204;-73
2023/12/11 01:47:34;;;;;;;0.70;0.65;;;8.90;99.90;;;;;;5036773;28;20283;-72
2023/12/11 01:50:02;;;;;;;1.08;0.85;;;8.90;99.90;;;;;;5032680;28;20204;-72
2023/12/11 01:52:30;;;;;;;3.03;0.80;;;8.80;99.90;;;;;;5032744;28;20209;-73
2023/12/11 01:54:58;;;;;;;1.10;0.60;;;9.00;99.90;;;;;;5032800;28;20228;-73
2023/12/11 01:57:26;;;;;;;1.02;0.70;;;9.00;99.90;;;;;;5032178;28;20212;-73
2023/12/11 01:59:56;;;;;;;0.60;0.50;;;9.00;99.90;;;;;;5034741;28;20216;-72
2023/12/11 02:02:24;;;;;;;0.90;0.60;;;9.00;99.90;;;;;;5046590;28;20216;-73
2023/12/11 02:04:53;;;;;;;1.77;0.80;;;8.90;99.90;;;;;;5040800;28;20223;-73
2023/12/11 02:07:22;;;;;;;0.73;0.55;;;8.90;99.90;;;;;;5032065;28;20291;-73
2023/12/11 02:09:50;;;;;;;0.68;0.52;;;8.90;99.90;;;;;;5032529;28;20212;-73
2023/12/11 02:12:18;;;;;;;2.05;0.60;;;8.90;99.90;;;;;;5032382;28;20621;-72
2023/12/11 02:14:46;;;;;;;0.70;0.52;;;8.90;99.90;;;;;;5032315;28;20274;-73
2023/12/11 02:17:15;;;;;;;0.95;0.65;;;8.90;99.90;;;;;;5031793;28;20204;-72
2023/12/11 02:19:43;;;;;;;2.55;1.25;;;8.80;99.90;;;;;;5032222;28;20225;-72
2023/12/11 02:22:12;;;;;;;0.95;0.70;;;8.80;99.90;;;;;;5032011;28;20213;-71
2023/12/11 02:24:46;;;;;;;1.05;0.70;;;8.80;99.90;;;;;;5032381;28;20205;-71
2023/12/11 02:27:16;;;;;;;0.68;0.50;;;8.80;99.90;;;;;;5031647;28;20208;-71
2023/12/11 02:29:43;;;;;;;1.02;0.75;;;8.80;99.90;;;;;;5032184;28;20225;-71
2023/12/11 02:32:11;;;;;;;1.13;0.70;;;8.90;99.90;;;;;;5038643;28;20371;-71
2023/12/11 02:34:39;;;;;;;0.75;0.50;;;8.80;99.90;;;;;;5040283;28;20263;-72
2023/12/11 02:37:07;;;;;;;0.60;0.55;;;8.70;99.90;;;;;;5031584;28;20259;-73
2023/12/11 02:39:35;;;;;;;1.45;0.52;;;8.70;99.90;;;;;;5036207;28;20285;-72
2023/12/11 02:42:03;;;;;;;0.50;0.40;;;8.70;99.90;;;;;;5036098;28;20616;-73
2023/12/11 02:44:33;;;;;;;0.70;0.60;;;8.60;99.90;;;;;;5031940;28;20674;-72
2023/12/11 02:47:01;;;;;;;0.50;0.50;;;8.50;99.90;;;;;;5039278;28;20670;-73
2023/12/11 02:49:29;;;;;;;1.10;0.80;;;8.50;99.90;;;;;;5030890;28;20282;-73
2023/12/11 02:51:57;;;;;;;0.90;0.60;;;8.60;99.90;;;;;;5035987;28;20206;-74
2023/12/11 02:54:25;;;;;;;0.60;0.50;;;8.60;99.90;;;;;;5039512;28;20228;-73
2023/12/11 02:56:52;;;;;;;0.70;0.65;;;8.50;99.90;;;;;;5031320;28;20262;-73
2023/12/11 02:59:20;;;;;;;0.77;0.50;;;8.40;99.90;;;;;;5034935;28;20746;-72
2023/12/11 03:01:50;;;;;;;0.70;0.60;;;8.40;99.90;;;;;;5044521;28;20207;-72
2023/12/11 03:04:18;;;;;;;2.65;0.60;;;8.50;99.90;;;;;;5049742;28;20244;-72
2023/12/11 03:06:46;;;;;;;2.15;1.20;;;8.50;99.90;;;;;;5036427;28;20200;-71
2023/12/11 03:09:13;;;;;;;1.00;0.80;;;8.40;99.90;;;;;;5033789;28;20267;-72
2023/12/11 03:11:41;;;;;;;1.10;0.70;;;8.50;99.90;;;;;;5039866;28;20232;-72
2023/12/11 03:14:09;;;;;;;0.80;0.70;;;8.40;99.90;;;;;;5034305;28;20216;-72
2023/12/11 03:16:37;;;;;;;0.70;0.57;;;8.40;99.90;;;;;;5031231;28;20212;-72
2023/12/11 03:19:06;;;;;;;0.60;0.50;;;8.40;99.90;;;;;;5030927;28;20225;-72
2023/12/11 03:21:34;;;;;;;1.30;0.70;;;8.60;99.90;;;;;;5033083;28;20204;-72
2023/12/11 03:24:02;;;;;;;2.05;0.60;;;8.60;99.90;;;;;;5031190;28;20200;-72
2023/12/11 03:26:31;;;;;;;0.90;0.60;;;8.80;99.90;;;;;;5030853;28;20200;-72
2023/12/11 03:28:59;;;;;;;0.60;0.50;;;9.00;99.90;;;;;;5030891;28;20278;-72
2023/12/11 03:31:26;;;;;;;0.68;0.60;;;9.10;99.90;;;;;;5040859;28;20701;-72
2023/12/11 03:33:54;;;;;;;0.90;0.52;;;9.20;99.90;;;;;;5044411;28;20262;-72
2023/12/11 03:36:24;;;;;;;1.35;0.70;;;9.30;99.90;;;;;;5030769;28;20208;-72
2023/12/11 03:38:51;;;;;;;0.50;0.40;;;9.20;99.90;;;;;;5030760;28;20228;-72
2023/12/11 03:41:19;;;;;;;0.60;0.52;;;9.10;99.90;;;;;;5030858;28;20287;-72
2023/12/11 03:43:47;;;;;;;1.17;0.93;;;9.00;99.90;;;;;;5030861;28;20733;-72
2023/12/11 03:46:15;;;;;;;0.80;0.57;;;9.00;99.90;;;;;;5030411;28;20208;-72
2023/12/11 03:48:43;;;;;;;1.25;0.63;;;9.10;99.90;;;;;;5030532;28;20216;-73
2023/12/11 03:51:11;;;;;;;1.05;0.57;;;9.10;99.90;;;;;;5030816;28;20196;-72
2023/12/11 03:53:40;;;;;;;1.10;1.00;;;9.10;99.90;;;;;;5030894;28;20208;-72
2023/12/11 03:56:09;;;;;;;0.82;0.50;;;9.00;99.90;;;;;;5030514;28;20322;-72
2023/12/11 03:58:37;;;;;;;1.60;0.70;;;9.00;99.90;;;;;;5038874;28;20228;-72
2023/12/11 04:01:05;;;;;;;3.08;0.90;;;9.00;99.90;;;;;;5041760;28;20199;-73
2023/12/11 04:03:33;;;;;;;2.55;0.60;;;9.10;99.90;;;;;;5041859;28;20204;-72
2023/12/11 04:06:01;;;;;;;0.98;0.68;;;9.10;99.90;;;;;;5035685;28;20201;-73
2023/12/11 04:08:29;;;;;;;2.00;1.02;;;8.90;99.90;;;;;;5030090;28;20233;-72
2023/12/11 04:10:58;;;;;;;2.10;1.15;;;8.80;99.90;;;;;;5030493;28;20208;-72
2023/12/11 04:13:26;;;;;;;6.68;1.35;;;8.60;99.90;;;;;;5029991;28;20211;-72
2023/12/11 04:15:54;;;;;;;0.85;0.57;;;8.40;99.90;;;;;;5030448;28;20279;-72
2023/12/11 04:18:22;;;;;;;0.65;0.60;;;8.40;99.90;;;;;;5030198;28;20589;-72
2023/12/11 04:20:50;;;;;;;0.63;0.63;;;8.50;99.90;;;;;;5032374;28;20602;-72
2023/12/11 04:23:18;;;;;;;0.60;0.50;;;8.60;99.90;;;;;;5030209;28;20213;-73
2023/12/11 04:25:46;;;;;;;2.00;0.80;;;8.70;99.90;;;;;;5030231;28;20659;-72
2023/12/11 04:28:15;;;;;;;1.60;0.60;;;8.70;99.90;;;;;;5030429;28;20274;-72
2023/12/11 04:30:43;;;;;;;1.23;0.77;;;8.90;99.90;;;;;;5034489;28;20208;-73
2023/12/11 04:33:11;;;;;;;3.90;0.70;;;9.00;99.90;;;;;;5041556;28;20204;-72
2023/12/11 04:35:39;;;;;;;3.63;0.90;;;9.00;99.90;;;;;;5030017;28;20224;-71
2023/12/11 04:38:07;;;;;;;6.43;0.90;;;8.90;99.90;;;;;;5030205;28;20270;-72
2023/12/11 04:40:35;;;;;;;2.42;0.63;;;8.80;99.90;;;;;;5030065;28;20219;-73
2023/12/11 04:43:03;;;;;;;0.65;0.60;;;8.70;99.90;;;;;;5029994;28;20574;-72
2023/12/11 04:45:33;;;;;;;3.63;0.85;;;8.70;99.90;;;;;;5030215;28;20211;-74
2023/12/11 04:48:01;;;;;;;1.27;0.70;;;8.70;99.90;;;;;;5030123;28;20247;-72
2023/12/11 04:50:29;;;;;;;1.30;0.80;;;8.60;99.90;;;;;;5030116;28;20213;-72
2023/12/11 04:52:56;;;;;;;1.20;0.80;;;8.60;99.90;;;;;;5029945;28;20201;-73
2023/12/11 04:55:25;;;;;;;0.98;0.70;;;8.40;99.90;;;;;;5029799;28;20641;-72
2023/12/11 04:57:53;;;;;;;1.92;0.90;;;8.30;99.90;;;;;;5029692;28;20232;-72
2023/12/11 05:00:21;;;;;;;1.60;0.90;;;8.30;99.90;;;;;;5039129;28;20205;-72
2023/12/11 05:02:50;;;;;;;2.05;0.70;;;8.30;99.90;;;;;;5049829;28;20208;-72
2023/12/11 05:05:18;;;;;;;1.50;1.10;;;8.30;99.90;;;;;;5054620;22;20718;-69
2023/12/11 05:07:46;;;;;;;1.23;0.93;;;8.20;99.90;;;;;;5029526;28;20205;-70
2023/12/11 05:10:14;;;;;;;2.90;0.90;;;8.20;99.90;;;;;;5021867;28;20208;-70
2023/12/11 05:12:42;;;;;;;2.47;1.00;;;8.30;99.90;;;;;;5032144;28;20656;-71
2023/12/11 05:15:11;;;;;;;1.95;1.05;;;8.40;99.90;;;;;;5026141;28;20677;-68
2023/12/11 05:17:39;;;;;;;1.55;0.90;;;8.40;99.90;;;;;;5013355;28;20225;-68
2023/12/11 05:20:10;;;;;;;1.23;0.80;;;8.40;99.90;;;;;;5013652;28;20197;-68
2023/12/11 05:22:38;;;;;;;2.35;0.80;;;8.30;99.90;;;;;;5013433;28;20208;-69
2023/12/11 05:25:07;;;;;;;1.48;1.23;;;8.30;99.90;;;;;;5013581;28;20245;-68
2023/12/11 05:27:35;;;;;;;3.45;2.28;;;8.40;99.90;;;;;;5013507;28;20551;-67
2023/12/11 05:30:03;;;;;;;3.55;2.33;;;8.30;99.90;;;;;;5013554;28;20206;-67
2023/12/11 05:32:31;;;;;;;0.68;0.55;;;8.30;99.90;;;;;;5003543;28;20213;-68
2023/12/11 05:34:59;;;;;;;0.90;0.65;;;8.30;99.90;;;;;;5015227;28;20248;-68
2023/12/11 05:37:28;;;;;;;3.03;0.80;;;8.30;99.90;;;;;;5013143;28;20613;-68
2023/12/11 05:39:56;;;;;;;2.58;1.27;;;8.40;99.90;;;;;;5013383;28;20668;-68
2023/12/11 05:42:44;;;;;;;0.93;0.73;;;8.40;99.90;;;;;;5013116;28;20288;-71
2023/12/11 05:45:11;;;;;;;1.00;0.90;;;8.50;99.90;;;;;;5012288;28;20229;-70
2023/12/11 05:47:39;;;;;;;2.92;1.00;;;8.60;99.90;;;;;;5013069;28;20680;-68
2023/12/11 05:50:07;;;;;;;1.75;0.90;;;8.50;99.90;;;;;;5013191;28;20245;-68
2023/12/11 05:52:37;;;;;;;3.63;1.42;;;8.60;99.90;;;;;;5012645;28;20292;-68
2023/12/11 05:55:05;;;;;;;2.20;1.50;;;8.60;99.90;;;;;;5012598;28;20272;-71
2023/12/11 05:57:33;;;;;;;2.35;1.70;;;8.50;99.90;;;;;;5012561;28;20248;-69
2023/12/11 06:00:02;;;;;;;2.28;1.20;;;8.50;99.90;;;;;;5016966;28;20244;-69
2023/12/11 06:02:30;;;;;;;1.83;1.10;;;8.40;99.90;;;;;;5012228;28;20212;-69
2023/12/11 06:04:58;;;;;;;2.38;1.45;;;8.40;99.90;;;;;;5012529;28;20241;-69
2023/12/11 06:07:26;;;;;;;2.17;0.93;;;8.40;99.90;;;;;;5012464;28;20240;-69
2023/12/11 06:09:55;;;;;;;2.42;0.88;;;8.40;99.90;;;;;;5012681;28;20687;-69
2023/12/11 06:12:23;;;;;;;1.70;0.70;;;8.30;99.90;;;;;;5007840;28;20236;-68
2023/12/11 06:14:51;;;;;;;2.25;0.80;;;8.30;99.90;;;;;;5005047;28;20228;-67
2023/12/11 06:17:19;;;;;;;2.05;0.70;;;8.20;99.90;;;;;;4999503;28;21053;-66
2023/12/11 06:19:47;;;;;;;1.85;0.90;;;8.20;99.90;;;;;;4999810;28;20220;-68
2023/12/11 06:22:15;;;;;;;1.20;0.80;;;8.20;99.90;;;;;;4999945;28;20220;-68
2023/12/11 06:24:43;;;;;;;0.70;0.70;;;8.20;99.90;;;;;;4998482;28;20388;-65
2023/12/11 06:27:13;;;;;;;0.93;0.80;;;8.20;99.90;;;;;;5000475;28;20209;-66
2023/12/11 06:29:41;;;;;;;1.63;0.88;;;8.10;99.90;;;;;;4999934;28;20213;-68
2023/12/11 06:32:09;;;;;;;5.00;1.48;;;8.10;99.90;;;;;;5000427;28;20240;-67
2023/12/11 06:34:37;;;;;;;2.90;1.33;;;8.10;99.90;;;;;;4998341;28;20261;-64
2023/12/11 06:37:05;;;;;;;4.80;1.00;;;8.00;99.90;;;;;;5000233;28;20225;-66
2023/12/11 06:39:33;;;;;;;1.85;0.93;;;8.00;99.90;;;;;;4998400;28;20237;-66
2023/12/11 06:42:01;;;;;;;1.40;1.30;;;8.10;99.90;;;;;;5000312;28;20222;-66
2023/12/11 06:44:30;;;;;;;2.70;1.50;;;8.10;99.90;;;;;;4997323;28;20267;-67
2023/12/11 06:46:58;;;;;;;1.60;1.35;;;8.10;99.90;;;;;;5000476;28;20746;-64
2023/12/11 06:49:26;;;;;;;1.05;0.95;;;8.20;99.90;;;;;;5000309;28;20217;-67
2023/12/11 06:51:55;;;;;;;1.75;1.10;;;8.20;99.90;;;;;;5000052;28;20740;-64
2023/12/11 06:54:23;;;;;;;2.15;1.92;;;8.20;99.90;;;;;;4997624;28;20225;-66
2023/12/11 06:56:51;;;;;;;1.45;1.00;;;8.20;99.90;;;;;;4998875;28;21228;-66
2023/12/11 06:59:19;;;;;;;2.28;1.20;;;8.10;99.90;;;;;;4999395;28;20267;-64
2023/12/11 07:01:48;;;;;;;3.33;2.95;;;8.10;99.90;;;;;;4999548;28;20220;-63
2023/12/11 07:04:16;;;;;;;4.40;1.95;;;8.10;99.90;;;;;;4997215;28;20745;-64
2023/12/11 07:06:44;;;;;;;2.63;1.70;;;8.10;99.90;;;;;;5002295;28;20268;-65
2023/12/11 07:09:12;;;;;;;3.20;1.83;;;8.00;99.90;;;;;;5005943;28;20620;-65
2023/12/11 07:11:41;;;;;;;7.10;3.40;;;7.90;99.90;;;;;;5011124;28;20630;-65
2023/12/11 07:14:09;;;;;;;6.15;2.53;;;7.90;99.90;;;;;;5011234;28;20229;-66
2023/12/11 07:16:37;;;;;;;4.45;2.80;;;7.80;99.90;;;;;;5011006;28;20232;-68
2023/12/11 07:19:06;;;;;;;2.40;2.05;;;7.80;99.90;;;;;;5011339;28;20245;-65
2023/12/11 07:21:35;;;;;;;2.72;1.83;;;7.80;99.90;;;;;;5011556;28;20217;-66
2023/12/11 07:24:03;;;;;;;1.40;1.30;;;7.80;99.90;;;;;;5011867;28;20223;-65
2023/12/11 07:26:31;;;;;;;2.58;1.70;;;7.70;99.90;;;;;;5014316;28;20255;-70
2023/12/11 07:29:00;;;;;;;1.75;1.65;;;7.80;99.90;;;;;;5010631;28;20205;-68
2023/12/11 07:31:27;;;;;;;3.20;2.00;;;7.80;99.90;;;;;;5010815;28;20214;-67
2023/12/11 07:33:55;;;;;;;4.00;1.67;;;7.80;99.90;;;;;;5002696;28;20590;-68
2023/12/11 07:36:25;;;;;;;1.30;1.20;;;8.50;99.90;;;;;;5013558;28;20710;-67
2023/12/11 07:38:53;;;;;;;4.68;1.55;;;8.80;99.90;;;;;;5012664;28;20699;-65
2023/12/11 07:41:23;;;;;;;3.88;2.60;;;9.20;99.90;;;;;;5008823;28;20209;-67
2023/12/11 07:43:51;;;;;;;5.93;2.95;;;8.60;99.90;;;;;;5000088;28;20232;-69
2023/12/11 07:46:19;;;;;;;3.28;2.72;;;8.40;99.90;;;;;;5006593;28;20205;-66
2023/12/11 07:48:47;;;;;;;4.00;1.63;;;8.20;99.90;;;;;;5007107;28;20719;-64
2023/12/11 07:51:19;;;;;;;2.33;1.63;;;8.10;99.90;;;;;;5005354;28;20295;-64
2023/12/11 07:53:49;;;;;;;1.75;1.40;;;8.10;99.90;;;;;;5002574;28;20226;-65
2023/12/11 07:56:20;;;;;;;2.90;1.80;;;8.10;99.90;;;;;;5002496;28;20251;-65
2023/12/11 07:58:48;;;;;;;1.50;1.40;;;8.00;99.90;;;;;;5006999;28;21061;-68
2023/12/11 08:01:16;;;;;;;2.10;1.25;;;8.20;99.90;;;;;;5003896;28;20201;-67
2023/12/11 08:03:44;;;;;;;2.97;1.40;;;8.40;99.90;;;;;;5001298;28;20237;-65
2023/12/11 08:06:12;;;;;;;1.92;1.15;;;8.60;99.90;;;;;;5004987;28;20213;-65
2023/12/11 08:08:43;;;;;;;2.75;1.02;;;8.80;99.90;;;;;;5007424;28;20202;-65
2023/12/11 08:11:20;;;;;;;2.65;1.00;;;8.90;99.90;;;;;;5006856;28;20209;-65
2023/12/11 08:13:49;;;;;;;3.08;1.35;;;9.20;99.90;;;;;;5007325;28;20232;-65
2023/12/11 08:16:17;;;;;;;2.35;0.90;;;9.40;99.90;;;;;;5002230;28;20205;-64
2023/12/11 08:18:45;;;;;;;3.05;0.98;;;9.70;99.90;;;;;;5006774;28;20216;-65
2023/12/11 08:21:13;;;;;;;0.98;0.82;;;9.90;99.90;;;;;;5007963;28;20205;-65
2023/12/11 08:23:43;;;;;;;1.63;0.82;;;10.10;99.90;;;;;;5006071;28;20263;-65
2023/12/11 08:26:12;;;;;;;1.00;0.80;;;10.30;99.90;;;;;;5001509;28;20301;-65
2023/12/11 08:28:41;;;;;;;1.83;0.93;;;10.50;99.90;;;;;;5003811;28;20206;-64
2023/12/11 08:31:09;;;;;;;0.98;0.70;;;10.80;99.90;;;;;;5007376;28;20209;-67
2023/12/11 08:33:37;;;;;;;7.22;1.92;;;11.00;99.90;;;;;;5001292;28;20706;-67
2023/12/11 08:36:06;;;;;;;1.60;0.80;;;11.40;99.90;;;;;;5003049;28;20232;-67
2023/12/11 08:38:34;;;;;;;3.08;0.80;;;11.60;99.90;;;;;;5005552;28;20531;-65
2023/12/11 08:41:02;;;;;;;2.72;1.23;;;11.80;99.90;;;;;;5007359;28;20205;-65
2023/12/11 08:43:30;;;;;;;0.70;0.70;;;12.00;99.90;;;;;;5004153;28;20213;-65
2023/12/11 08:46:00;;;;;;;1.60;0.80;;;12.00;99.90;;;;;;5006789;28;20279;-65
2023/12/11 08:48:27;;;;;;;3.10;1.23;;;12.20;99.90;;;;;;5007670;28;20293;-68
2023/12/11 08:50:56;;;;;;;1.10;0.90;;;12.40;99.90;;;;;;5006434;28;20210;-65
2023/12/11 08:53:24;;;;;;;5.35;1.08;;;12.50;99.90;;;;;;5006987;28;20213;-64
2023/12/11 08:55:53;;;;;;;6.00;1.35;;;12.60;99.90;;;;;;5004168;28;20206;-65
2023/12/11 08:58:21;;;;;;;0.80;0.60;;;12.80;99.90;;;;;;5008124;28;20228;-65
2023/12/11 09:00:49;;;;;;;2.20;0.70;;;12.90;99.90;;;;;;5005664;28;20279;-65
2023/12/11 09:03:20;;;;;;;2.60;0.63;;;12.90;99.90;;;;;;5004398;28;20665;-65
2023/12/11 09:05:48;;;;;;;1.15;0.65;;;13.10;99.90;;;;;;5018161;28;20213;-67
2023/12/11 09:08:16;;;;;;;3.05;1.33;;;13.50;99.90;;;;;;5006822;28;20293;-65
2023/12/11 09:10:44;;;;;;;1.77;1.05;;;13.90;99.90;;;;;;5006916;28;20205;-65
2023/12/11 09:13:13;;;;;;;3.40;0.88;;;13.80;99.90;;;;;;5004587;28;20648;-65
2023/12/11 09:15:41;;;;;;;2.58;0.95;;;13.80;99.90;;;;;;5007766;28;20321;-65
2023/12/11 09:18:09;;;;;;;3.88;0.93;;;13.90;99.90;;;;;;5008493;28;20221;-66
2023/12/11 09:20:39;;;;;;;2.05;0.70;;;13.70;99.90;;;;;;5012803;28;20669;-66
2023/12/11 09:23:08;;;;;;;1.30;0.80;;;13.50;99.90;;;;;;5011863;28;20217;-66
2023/12/11 09:25:36;;;;;;;2.97;1.25;;;13.30;99.90;;;;;;5005431;28;20731;-66
2023/12/11 09:28:05;;;;;;;3.25;1.60;;;13.40;99.90;;;;;;5007118;28;20205;-65
2023/12/11 09:30:33;;;;;;;3.10;1.77;;;13.30;99.90;;;;;;5011001;28;20216;-65
2023/12/11 09:33:01;;;;;;;2.42;1.73;;;13.40;99.90;;;;;;5005299;28;20214;-66
2023/12/11 09:35:29;;;;;;;5.10;2.17;;;13.40;99.90;;;;;;5006239;28;20236;-66
2023/12/11 09:37:58;;;;;;;1.75;1.10;;;13.10;99.90;;;;;;5008154;28;20220;-65
2023/12/11 09:40:26;;;;;;;2.53;1.35;;;13.00;99.90;;;;;;5007916;28;20259;-68
2023/12/11 09:42:54;;;;;;;4.50;1.20;;;13.10;99.90;;;;;;5011173;28;20284;-65
2023/12/11 09:45:22;;;;;;;1.70;0.93;;;13.10;99.90;;;;;;5012045;28;20228;-64
2023/12/11 09:47:53;;;;;;;3.80;0.95;;;13.20;99.90;;;;;;5008516;28;20197;-64
2023/12/11 09:50:38;;;;;;;1.10;0.90;;;13.30;99.90;;;;;;5010041;28;20216;-65
2023/12/11 09:53:08;;;;;;;2.55;0.75;;;13.10;99.90;;;;;;5012457;28;20217;-65
2023/12/11 09:55:36;;;;;;;3.53;1.10;;;12.90;99.90;;;;;;5007843;28;20260;-65
2023/12/11 09:58:05;;;;;;;2.25;0.93;;;12.90;99.90;;;;;;5008640;28;20240;-65
2023/12/11 10:00:33;;;;;;;5.32;1.65;;;12.90;99.90;;;;;;5010411;28;20201;-64
2023/12/11 10:03:05;;;;;;;3.08;1.77;;;12.90;99.90;;;;;;5008879;28;20206;-68
2023/12/11 10:05:35;;;;;;;3.28;1.17;;;12.90;99.90;;;;;;5005326;28;20287;-65
2023/12/11 10:08:04;;;;;;;1.48;0.68;;;12.70;99.90;;;;;;5011175;28;20248;-68
2023/12/11 10:10:37;;;;;;;6.82;1.77;;;12.60;99.90;;;;;;5007567;28;20205;-68
2023/12/11 10:13:05;;;;;;;2.38;1.15;;;12.40;99.90;;;;;;5005784;28;20205;-65
2023/12/11 10:15:35;;;;;;;2.97;0.85;;;12.30;99.90;;;;;;5005468;28;20237;-65
2023/12/11 10:18:05;;;;;;;4.45;1.17;;;12.20;99.90;;;;;;5009025;28;20248;-64
2023/12/11 10:20:35;;;;;;;6.00;1.17;;;12.20;99.90;;;;;;5004504;28;20213;-65
2023/12/11 10:23:14;;;;;;;2.97;1.33;;;12.20;99.90;;;;;;5008285;28;20213;-64
2023/12/11 10:25:46;;;;;;;2.55;0.80;;;12.20;99.90;;;;;;5008550;28;20248;-64
2023/12/11 10:28:16;;;;;;;2.88;0.80;;;12.20;99.90;;;;;;5008287;28;20198;-65
2023/12/11 10:30:52;;;;;;;2.72;0.77;;;12.40;99.90;;;;;;5005035;28;20503;-65
2023/12/11 10:33:21;;;;;;;1.63;0.73;;;12.90;99.90;;;;;;5004456;28;20209;-66
2023/12/11 10:35:50;;;;;;;4.72;0.80;;;13.00;99.90;;;;;;5008342;28;20256;-65
2023/12/11 10:38:22;;;;;;;4.93;1.35;;;13.20;99.90;;;;;;5007445;28;20228;-65
2023/12/11 10:40:52;;;;;;;1.25;0.88;;;13.40;99.90;;;;;;5006714;28;20206;-65
2023/12/11 10:43:20;;;;;;;5.20;0.90;;;13.40;99.90;;;;;;4998857;28;20267;-64
2023/12/11 10:45:49;;;;;;;1.52;0.70;;;13.20;99.90;;;;;;5002700;28;20284;-68
2023/12/11 10:48:20;;;;;;;4.03;1.13;;;12.90;99.90;;;;;;5001207;28;20217;-65
2023/12/11 10:50:50;;;;;;;2.78;1.48;;;12.70;99.90;;;;;;5006834;28;20228;-64
2023/12/11 10:53:18;;;;;;;3.25;0.75;;;12.60;99.90;;;;;;5000845;28;20683;-67
2023/12/11 10:55:48;;;;;;;3.20;1.25;;;12.50;99.90;;;;;;5004065;28;20224;-65
2023/12/11 10:58:18;;;;;;;2.35;0.75;;;12.40;99.90;;;;;;5002403;28;20236;-66
2023/12/11 11:00:46;;;;;;;3.42;0.75;;;12.30;99.90;;;;;;5002178;28;20204;-64
2023/12/11 11:03:14;;;;;;;2.83;0.90;;;12.30;99.90;;;;;;5001869;28;20260;-70
2023/12/11 11:05:44;;;;;;;2.17;1.05;;;12.20;99.90;;;;;;5001149;28;20240;-66
2023/12/11 11:08:21;;;;;;;1.02;0.70;;;12.20;99.90;;;;;;5006120;28;20193;-64
2023/12/11 11:10:54;;;;;;;1.25;0.90;;;12.10;99.90;;;;;;5000324;28;20212;-64
2023/12/11 11:13:28;;;;;;;3.55;1.02;;;12.10;99.90;;;;;;5003496;28;20201;-65
2023/12/11 11:15:56;;;;;;;2.75;1.08;;;12.10;99.90;;;;;;5005910;28;20245;-64
2023/12/11 11:18:24;;;;;;;1.30;1.05;;;12.00;99.90;;;;;;5002696;28;20275;-64
2023/12/11 11:21:13;;;;;;;3.70;0.85;;;12.00;99.90;;;;;;5002018;28;20669;-64
2023/12/11 11:23:43;;;;;;;1.55;1.00;;;12.00;99.90;;;;;;4996508;28;20252;-68
2023/12/11 11:26:34;;;;;;;1.38;1.27;;;12.00;99.90;;;;;;5003558;28;20210;-65
2023/12/11 11:29:04;;;;;;;1.50;0.70;;;12.10;99.90;;;;;;5002555;28;20204;-67
2023/12/11 11:31:49;;;;;;;2.80;1.00;;;12.10;99.90;;;;;;5003033;28;20296;-65
2023/12/11 11:34:46;;;;;;;3.25;0.80;;;12.20;99.90;;;;;;5001841;28;20232;-65
2023/12/11 11:37:17;;;;;;;1.42;0.70;;;12.30;99.90;;;;;;4999282;28;20305;-66
2023/12/11 11:39:59;;;;;;;1.50;0.90;;;12.30;99.90;;;;;;4999476;28;20232;-66
2023/12/11 11:42:31;;;;;;;1.35;0.70;;;12.40;99.90;;;;;;5007799;28;20221;-65
2023/12/11 11:45:03;;;;;;;4.20;0.90;;;12.40;99.90;;;;;;5005021;28;20248;-66
2023/12/11 11:47:31;;;;;;;1.55;0.80;;;12.40;99.90;;;;;;4990192;28;20267;-69
2023/12/11 11:50:08;;;;;;;1.65;1.00;;;12.40;99.90;;;;;;5009533;28;20198;-64
2023/12/11 11:52:38;;;;;;;1.42;0.90;;;12.40;99.90;;;;;;5001219;28;20299;-64
2023/12/11 11:55:12;;;;;;;1.33;0.75;;;12.50;99.90;;;;;;5006726;28;20568;-65
2023/12/11 11:57:40;;;;;;;1.05;0.75;;;12.50;99.90;;;;;;4997705;28;20312;-65
2023/12/11 12:00:11;;;;;;;3.08;1.13;;;12.50;99.90;;;;;;5001058;28;20243;-65
2023/12/11 12:02:38;;;;;;;2.35;1.10;;;12.50;99.90;;;;;;5004095;28;20229;-65
2023/12/11 12:05:07;;;;;;;1.98;0.60;;;12.50;99.90;;;;;;5004960;28;20283;-64
2023/12/11 12:07:39;;;;;;;3.78;1.38;;;12.50;99.90;;;;;;5007111;28;20217;-66
2023/12/11 12:10:08;;;;;;;1.23;0.50;;;12.60;99.90;;;;;;5003402;28;20201;-65
2023/12/11 12:12:36;;;;;;;2.10;0.95;;;12.60;99.90;;;;;;5004611;28;20205;-65
2023/12/11 12:15:07;;;;;;;1.70;0.85;;;12.50;99.90;;;;;;5004855;28;20237;-65
2023/12/11 12:17:37;;;;;;;1.80;0.50;;;12.50;99.90;;;;;;5009430;28;20209;-65
2023/12/11 12:20:10;;;;;;;0.90;0.60;;;12.50;99.90;;;;;;5003219;28;20224;-65
2023/12/11 12:22:38;;;;;;;1.77;0.77;;;12.40;99.90;;;;;;5009508;28;20208;-66
2023/12/11 12:25:14;;;;;;;1.25;0.73;;;12.40;99.90;;;;;;5006093;28;20704;-64
2023/12/11 12:27:43;;;;;;;3.42;1.23;;;12.30;99.90;;;;;;5003165;28;20527;-65
2023/12/11 12:30:12;;;;;;;1.67;0.85;;;12.20;99.90;;;;;;5008665;28;20213;-65
2023/12/11 12:32:41;;;;;;;2.15;0.93;;;12.20;99.90;;;;;;5010073;28;20221;-64
2023/12/11 12:35:09;;;;;;;2.78;0.70;;;12.20;99.90;;;;;;5001586;28;20630;-65
2023/12/11 12:37:38;;;;;;;1.15;0.90;;;12.10;99.90;;;;;;5004008;28;20684;-65
2023/12/11 12:40:08;;;;;;;2.35;1.15;;;12.10;99.90;;;;;;5005855;28;20283;-65
2023/12/11 12:42:36;;;;;;;4.95;0.80;;;12.10;99.90;;;;;;5013839;28;20212;-65
2023/12/11 12:45:05;;;;;;;2.08;0.98;;;12.10;99.90;;;;;;5019569;28;20708;-64
2023/12/11 12:47:33;;;;;;;0.93;0.73;;;12.10;99.90;;;;;;5020014;28;20303;-65
2023/12/11 12:50:06;;;;;;;5.72;0.88;;;12.10;99.90;;;;;;5010381;28;20204;-67
2023/12/11 12:52:36;;;;;;;5.30;0.77;;;12.10;99.90;;;;;;4999819;28;20212;-65
2023/12/11 12:55:05;;;;;;;0.73;0.70;;;12.20;99.90;;;;;;5001607;28;20230;-67
2023/12/11 12:57:36;;;;;;;5.05;1.00;;;12.30;99.90;;;;;;5009587;28;20206;-68
2023/12/11 13:00:05;;;;;;;1.63;0.60;;;12.30;99.90;;;;;;5005094;28;20228;-64
2023/12/11 13:02:33;;;;;;;4.68;0.75;;;12.30;99.90;;;;;;5012322;28;20631;-65